Time;durP1;ratioP1;P1;durP2;ratioP2;P2;SDS_P1;SDS_P2;PMS_P1;PMS_P2;Temp;Humidity;BMP_temperature;BMP_pressure;BME280_temperature;BME280_humidity;BME280_pressure;Samples;Min_cycle;Max_cycle;Signal;HPM_P1;HPM_P2
2023/09/05 00:00:47;;;;;;;8.75;5.70;;;14.60;99.90;;;;;;5035655;28;20218;-77
2023/09/05 00:03:16;;;;;;;8.18;5.90;;;14.50;99.90;;;;;;5035446;28;20203;-78
2023/09/05 00:05:43;;;;;;;6.55;5.22;;;14.10;99.90;;;;;;5035091;28;20191;-80
2023/09/05 00:08:10;;;;;;;6.70;5.28;;;13.90;99.90;;;;;;5034243;28;20600;-78
2023/09/05 00:10:38;;;;;;;8.30;5.57;;;13.90;99.90;;;;;;5034461;28;20273;-78
2023/09/05 00:13:06;;;;;;;11.30;5.78;;;13.90;99.90;;;;;;5033759;28;20244;-77
2023/09/05 00:15:32;;;;;;;8.05;5.63;;;13.80;99.90;;;;;;5026213;28;20228;-79
2023/09/05 00:17:59;;;;;;;7.15;5.30;;;13.90;99.90;;;;;;5034048;28;20196;-80
2023/09/05 00:20:26;;;;;;;6.68;5.10;;;14.10;99.90;;;;;;5034098;28;20889;-80
2023/09/05 00:22:53;;;;;;;6.15;4.60;;;14.40;99.90;;;;;;5033934;28;20203;-80
2023/09/05 00:25:20;;;;;;;7.53;4.97;;;14.50;99.90;;;;;;5034796;28;20251;-80
2023/09/05 00:27:48;;;;;;;7.65;5.78;;;14.60;99.90;;;;;;5034981;28;20203;-79
2023/09/05 00:30:16;;;;;;;6.65;5.05;;;14.40;99.90;;;;;;5034184;28;20219;-80
2023/09/05 00:32:43;;;;;;;7.60;5.20;;;13.90;99.90;;;;;;5035291;28;20325;-77
2023/09/05 00:35:11;;;;;;;5.75;4.60;;;13.60;99.90;;;;;;5037094;28;20226;-81
2023/09/05 00:37:38;;;;;;;7.35;5.38;;;13.50;99.90;;;;;;5038278;28;20199;-81
2023/09/05 00:40:06;;;;;;;7.97;5.65;;;13.60;99.90;;;;;;5034320;28;20220;-81
2023/09/05 00:42:32;;;;;;;9.15;5.60;;;13.70;99.90;;;;;;5019017;28;20205;-80
2023/09/05 00:45:01;;;;;;;5.90;4.80;;;13.70;99.90;;;;;;5022113;28;20580;-80
2023/09/05 00:47:29;;;;;;;6.77;5.53;;;13.70;99.90;;;;;;5038541;28;20196;-79
2023/09/05 00:49:56;;;;;;;6.87;4.57;;;13.60;99.90;;;;;;5037763;28;20577;-81
2023/09/05 00:52:25;;;;;;;7.67;5.37;;;13.60;99.90;;;;;;5038631;28;20243;-78
2023/09/05 00:54:53;;;;;;;7.27;5.07;;;13.70;99.90;;;;;;5038651;28;20258;-79
2023/09/05 00:57:21;;;;;;;7.18;5.40;;;13.60;99.90;;;;;;5038824;28;20215;-78
2023/09/05 00:59:48;;;;;;;7.22;5.20;;;13.50;99.90;;;;;;5035698;28;20720;-78
2023/09/05 01:02:16;;;;;;;7.07;5.45;;;13.30;99.90;;;;;;5025678;28;20204;-80
2023/09/05 01:04:44;;;;;;;7.85;5.65;;;13.40;99.90;;;;;;5034461;28;20215;-80
2023/09/05 01:07:17;;;;;;;7.83;6.20;;;13.40;99.90;;;;;;5037223;28;20663;-80
2023/09/05 01:09:52;;;;;;;8.90;5.93;;;13.40;99.90;;;;;;5037445;28;20281;-81
2023/09/05 01:12:19;;;;;;;9.90;6.40;;;13.40;99.90;;;;;;5037592;28;20290;-80
2023/09/05 01:14:45;;;;;;;9.23;6.03;;;13.40;99.90;;;;;;5037840;28;20223;-80
2023/09/05 01:17:12;;;;;;;9.30;6.43;;;13.40;99.90;;;;;;5035800;28;20199;-78
2023/09/05 01:19:42;;;;;;;7.37;5.87;;;13.40;99.90;;;;;;5036683;28;20299;-81
2023/09/05 01:22:18;;;;;;;11.17;6.83;;;13.50;99.90;;;;;;5036658;28;20208;-77
2023/09/05 01:24:47;;;;;;;7.80;6.20;;;13.50;99.90;;;;;;5036379;28;20216;-79
2023/09/05 01:27:17;;;;;;;9.03;5.87;;;13.50;99.90;;;;;;5047737;28;20207;-80
2023/09/05 01:29:45;;;;;;;8.87;5.67;;;13.60;99.90;;;;;;5047890;28;20202;-80
2023/09/05 01:32:11;;;;;;;7.90;5.90;;;13.80;99.90;;;;;;5039231;28;20615;-80
2023/09/05 01:34:39;;;;;;;6.70;5.33;;;13.70;99.90;;;;;;5038108;28;20203;-80
2023/09/05 01:37:06;;;;;;;8.23;5.67;;;13.50;99.90;;;;;;5038181;28;20548;-79
2023/09/05 01:39:32;;;;;;;7.90;5.80;;;13.30;99.90;;;;;;5036809;28;20286;-81
2023/09/05 01:42:00;;;;;;;7.23;5.53;;;13.20;99.90;;;;;;5037005;28;20224;-78
2023/09/05 01:44:27;;;;;;;6.82;5.15;;;13.20;99.90;;;;;;5044396;28;20233;-78
2023/09/05 01:46:54;;;;;;;8.17;5.30;;;13.30;99.90;;;;;;5038861;28;20196;-81
2023/09/05 01:49:21;;;;;;;6.67;5.53;;;13.30;99.90;;;;;;5016591;28;20214;-81
2023/09/05 01:51:48;;;;;;;7.53;5.30;;;13.30;99.90;;;;;;5045628;28;20219;-77
2023/09/05 01:54:14;;;;;;;8.07;5.30;;;13.30;99.90;;;;;;5056655;28;20195;-77
2023/09/05 01:56:41;;;;;;;7.27;5.13;;;13.30;99.90;;;;;;5057421;28;20639;-81
2023/09/05 01:59:09;;;;;;;7.67;4.90;;;13.30;99.90;;;;;;5037331;28;20710;-79
2023/09/05 02:01:36;;;;;;;7.43;4.70;;;13.10;99.90;;;;;;5037033;28;20662;-80
2023/09/05 02:04:03;;;;;;;10.10;5.07;;;12.80;99.90;;;;;;5037138;28;20199;-81
2023/09/05 02:06:30;;;;;;;6.47;5.10;;;12.80;99.90;;;;;;5037128;28;20290;-81
2023/09/05 02:08:57;;;;;;;6.50;4.80;;;12.70;99.90;;;;;;5037174;28;20672;-80
2023/09/05 02:11:23;;;;;;;5.90;5.20;;;12.80;99.90;;;;;;5036645;28;20229;-80
2023/09/05 02:13:50;;;;;;;9.27;5.23;;;12.80;99.90;;;;;;5037491;28;20210;-81
2023/09/05 02:16:19;;;;;;;8.10;5.43;;;13.00;99.90;;;;;;5036839;28;20690;-81
2023/09/05 02:18:47;;;;;;;7.33;5.07;;;13.00;99.90;;;;;;5037273;28;20552;-80
2023/09/05 02:21:15;;;;;;;6.23;5.23;;;13.20;99.90;;;;;;5035454;28;20717;-81
2023/09/05 02:23:42;;;;;;;7.53;5.60;;;13.50;99.90;;;;;;5036139;28;20204;-81
2023/09/05 02:26:09;;;;;;;7.13;5.50;;;13.50;99.90;;;;;;5035710;28;20291;-80
2023/09/05 02:28:37;;;;;;;7.17;5.20;;;13.70;99.90;;;;;;5037006;28;20572;-81
2023/09/05 02:31:06;;;;;;;7.33;5.30;;;13.90;99.90;;;;;;5036766;28;20273;-81
2023/09/05 02:33:36;;;;;;;8.10;5.43;;;13.70;99.90;;;;;;5032082;28;20199;-80
2023/09/05 02:36:08;;;;;;;8.40;5.57;;;13.50;99.90;;;;;;5036724;28;20196;-78
2023/09/05 02:38:35;;;;;;;8.70;5.80;;;13.40;99.90;;;;;;5028353;28;20203;-81
2023/09/05 02:41:02;;;;;;;11.88;7.03;;;13.40;99.90;;;;;;5036297;28;20237;-79
2023/09/05 02:43:29;;;;;;;7.67;5.83;;;13.40;99.90;;;;;;5035877;28;20204;-81
2023/09/05 02:45:55;;;;;;;7.88;5.68;;;13.30;99.90;;;;;;5035480;28;20224;-81
2023/09/05 02:48:23;;;;;;;7.43;5.22;;;13.20;99.90;;;;;;5017150;28;20209;-79
2023/09/05 02:51:01;;;;;;;6.63;5.38;;;13.20;99.90;;;;;;5029197;28;20228;-80
2023/09/05 02:53:28;;;;;;;8.27;5.43;;;12.90;99.90;;;;;;5036496;28;20291;-79
2023/09/05 02:55:55;;;;;;;7.30;5.57;;;12.90;99.90;;;;;;5035515;28;20553;-80
2023/09/05 02:58:21;;;;;;;8.47;5.43;;;12.80;99.90;;;;;;5034625;28;20207;-80
2023/09/05 03:00:49;;;;;;;7.13;5.53;;;12.80;99.90;;;;;;5026565;28;20234;-79
2023/09/05 03:03:16;;;;;;;6.53;4.90;;;12.70;99.90;;;;;;5015487;28;20889;-80
2023/09/05 03:05:43;;;;;;;6.73;5.00;;;12.70;99.90;;;;;;5015619;28;20263;-80
2023/09/05 03:08:11;;;;;;;12.07;6.40;;;12.70;99.90;;;;;;5016571;28;20204;-80
2023/09/05 03:10:38;;;;;;;6.67;5.50;;;12.80;99.90;;;;;;5035703;28;20696;-80
2023/09/05 03:13:05;;;;;;;7.57;4.87;;;12.70;99.90;;;;;;5035726;28;20217;-79
2023/09/05 03:15:32;;;;;;;7.90;5.03;;;12.70;99.90;;;;;;5034667;28;20687;-79
2023/09/05 03:17:58;;;;;;;5.83;4.40;;;12.70;99.90;;;;;;5034959;28;20419;-81
2023/09/05 03:20:25;;;;;;;8.60;5.33;;;12.70;99.90;;;;;;5034338;28;20715;-77
2023/09/05 03:22:53;;;;;;;8.40;5.07;;;13.00;99.90;;;;;;5032053;28;20211;-78
2023/09/05 03:25:24;;;;;;;9.03;5.23;;;13.10;99.90;;;;;;5041721;28;20575;-79
2023/09/05 03:27:51;;;;;;;7.40;4.70;;;12.90;99.90;;;;;;5042215;28;20367;-76
2023/09/05 03:30:18;;;;;;;6.70;5.17;;;12.80;99.90;;;;;;5031235;28;20230;-77
2023/09/05 03:32:45;;;;;;;7.50;4.97;;;12.90;99.90;;;;;;5035980;28;20262;-79
2023/09/05 03:35:11;;;;;;;6.47;4.93;;;12.80;99.90;;;;;;5038561;28;20203;-77
2023/09/05 03:37:38;;;;;;;5.97;5.17;;;12.70;99.90;;;;;;5032670;28;20200;-80
2023/09/05 03:40:06;;;;;;;5.70;4.40;;;12.70;99.90;;;;;;5038458;28;20231;-78
2023/09/05 03:42:34;;;;;;;6.63;4.67;;;12.60;99.90;;;;;;5033585;28;20204;-78
2023/09/05 03:45:02;;;;;;;7.57;5.17;;;12.50;99.90;;;;;;5035121;28;20220;-79
2023/09/05 03:47:28;;;;;;;7.73;4.67;;;12.70;99.90;;;;;;5035853;28;20203;-78
2023/09/05 03:49:55;;;;;;;6.93;4.60;;;12.80;99.90;;;;;;5033453;28;20238;-78
2023/09/05 03:52:22;;;;;;;12.90;4.90;;;12.90;99.90;;;;;;5046107;28;20210;-77
2023/09/05 03:54:49;;;;;;;9.87;4.77;;;12.80;99.90;;;;;;5041577;28;20202;-78
2023/09/05 03:57:16;;;;;;;6.50;4.67;;;12.90;99.90;;;;;;5038173;28;20222;-79
2023/09/05 03:59:44;;;;;;;7.67;4.70;;;12.90;99.90;;;;;;5047863;28;20198;-77
2023/09/05 04:02:11;;;;;;;6.67;4.73;;;12.70;99.90;;;;;;5037544;28;20313;-78
2023/09/05 04:04:38;;;;;;;8.13;4.70;;;12.60;99.90;;;;;;5037264;28;20200;-79
2023/09/05 04:07:06;;;;;;;5.27;4.70;;;12.50;99.90;;;;;;5039758;28;20289;-79
2023/09/05 04:09:33;;;;;;;6.17;4.47;;;12.60;99.90;;;;;;5031694;28;20199;-78
2023/09/05 04:12:00;;;;;;;5.00;4.50;;;12.70;99.90;;;;;;5037412;28;20242;-78
2023/09/05 04:14:27;;;;;;;6.20;4.63;;;12.70;99.90;;;;;;5029480;28;20203;-76
2023/09/05 04:16:55;;;;;;;6.50;4.40;;;12.50;99.90;;;;;;5028747;28;20192;-76
2023/09/05 04:19:22;;;;;;;5.60;4.23;;;12.50;99.90;;;;;;5028261;28;20195;-78
2023/09/05 04:21:49;;;;;;;7.47;5.07;;;12.70;99.90;;;;;;5036251;28;20311;-76
2023/09/05 04:24:16;;;;;;;7.40;4.23;;;12.60;99.90;;;;;;5042067;28;20200;-78
2023/09/05 04:26:45;;;;;;;6.17;4.87;;;12.40;99.90;;;;;;5041005;28;20699;-78
2023/09/05 04:29:12;;;;;;;5.37;4.50;;;12.30;99.90;;;;;;5034809;28;20214;-78
2023/09/05 04:31:38;;;;;;;6.33;4.27;;;12.40;99.90;;;;;;5029670;28;20243;-78
2023/09/05 04:34:07;;;;;;;7.23;4.90;;;12.60;99.90;;;;;;5034259;28;20211;-78
2023/09/05 04:36:36;;;;;;;9.70;4.87;;;12.70;99.90;;;;;;5030013;28;20195;-78
2023/09/05 04:39:04;;;;;;;9.70;4.60;;;12.50;99.90;;;;;;5031409;28;20231;-78
2023/09/05 04:41:31;;;;;;;5.80;4.47;;;12.40;99.90;;;;;;5039871;28;20281;-77
2023/09/05 04:43:57;;;;;;;5.43;4.50;;;12.40;99.90;;;;;;5038673;28;20196;-78
2023/09/05 04:46:24;;;;;;;10.27;5.00;;;12.40;99.90;;;;;;5033193;28;20310;-78
2023/09/05 04:48:53;;;;;;;7.70;4.90;;;12.30;99.90;;;;;;5035873;28;20572;-78
2023/09/05 04:51:22;;;;;;;6.63;5.70;;;12.30;99.90;;;;;;5038639;28;20258;-78
2023/09/05 04:53:49;;;;;;;9.57;5.40;;;12.30;99.90;;;;;;5033981;28;20204;-78
2023/09/05 04:56:17;;;;;;;7.60;5.07;;;12.70;99.90;;;;;;5038780;28;20208;-78
2023/09/05 04:58:45;;;;;;;7.83;5.37;;;13.00;99.90;;;;;;5038085;28;20195;-78
2023/09/05 05:01:11;;;;;;;7.47;4.80;;;13.20;99.90;;;;;;5034304;28;20235;-78
2023/09/05 05:03:39;;;;;;;7.13;4.83;;;13.30;99.90;;;;;;5050170;28;20199;-77
2023/09/05 05:06:06;;;;;;;14.83;8.60;;;13.30;99.90;;;;;;5034259;28;20224;-80
2023/09/05 05:08:34;;;;;;;9.73;7.03;;;13.40;99.90;;;;;;5026074;28;20210;-81
2023/09/05 05:11:04;;;;;;;6.77;4.60;;;13.50;99.90;;;;;;5035464;28;20287;-80
2023/09/05 05:13:31;;;;;;;16.20;5.23;;;13.60;99.90;;;;;;5032150;28;20238;-80
2023/09/05 05:15:58;;;;;;;15.53;12.07;;;13.60;99.90;;;;;;5031583;28;20232;-77
2023/09/05 05:18:25;;;;;;;11.23;10.13;;;13.80;99.90;;;;;;5031863;28;20226;-80
2023/09/05 05:20:53;;;;;;;11.30;10.10;;;13.90;99.90;;;;;;5045504;28;20210;-81
2023/09/05 05:23:20;;;;;;;11.63;8.75;;;13.90;99.90;;;;;;5037868;28;20648;-81
2023/09/05 05:25:48;;;;;;;7.57;6.33;;;14.10;99.90;;;;;;5035228;28;20232;-80
2023/09/05 05:28:15;;;;;;;8.97;6.07;;;14.20;99.90;;;;;;5041826;28;20577;-82
2023/09/05 05:30:42;;;;;;;6.37;5.27;;;14.30;99.90;;;;;;5039694;28;20612;-80
2023/09/05 05:33:08;;;;;;;7.20;5.07;;;14.20;99.90;;;;;;5046997;28;20203;-79
2023/09/05 05:35:36;;;;;;;6.27;4.67;;;14.20;99.90;;;;;;5037478;28;20191;-80
2023/09/05 05:38:02;;;;;;;6.20;4.30;;;14.10;99.90;;;;;;5039167;28;20221;-81
2023/09/05 05:40:29;;;;;;;6.25;4.53;;;14.10;99.90;;;;;;5039708;28;20231;-79
2023/09/05 05:42:58;;;;;;;5.82;4.20;;;14.20;99.90;;;;;;5029226;28;20207;-76
2023/09/05 05:45:24;;;;;;;6.63;4.03;;;14.30;99.90;;;;;;5032661;28;20227;-77
2023/09/05 05:47:53;;;;;;;8.80;5.43;;;14.30;99.90;;;;;;5037002;28;20199;-79
2023/09/05 05:50:20;;;;;;;7.75;4.50;;;14.60;99.90;;;;;;5032678;28;20573;-80
2023/09/05 05:52:46;;;;;;;7.05;4.50;;;14.70;99.90;;;;;;5043068;28;20207;-79
2023/09/05 05:55:13;;;;;;;7.35;4.45;;;14.70;99.90;;;;;;5043745;28;20261;-80
2023/09/05 05:57:40;;;;;;;6.57;4.50;;;14.70;99.90;;;;;;5040522;28;20202;-80
2023/09/05 06:00:09;;;;;;;8.65;4.45;;;14.70;99.90;;;;;;5024895;28;20311;-77
2023/09/05 06:02:36;;;;;;;4.55;3.67;;;14.80;99.90;;;;;;5029520;28;20231;-80
2023/09/05 06:05:03;;;;;;;7.30;4.28;;;14.90;99.90;;;;;;5036396;28;20208;-79
2023/09/05 06:07:30;;;;;;;10.20;4.28;;;14.90;99.90;;;;;;5035562;28;20563;-80
2023/09/05 06:09:56;;;;;;;5.32;4.30;;;15.00;99.90;;;;;;5035730;28;20540;-79
2023/09/05 06:12:23;;;;;;;4.82;3.40;;;15.20;99.90;;;;;;5035355;28;20607;-78
2023/09/05 06:14:50;;;;;;;5.70;4.40;;;15.70;99.90;;;;;;5036520;28;20203;-79
2023/09/05 06:17:18;;;;;;;13.30;5.10;;;16.00;99.90;;;;;;5036044;28;20558;-79
2023/09/05 06:19:45;;;;;;;11.68;5.53;;;15.80;99.90;;;;;;5036277;28;20687;-79
2023/09/05 06:22:11;;;;;;;20.17;6.53;;;15.80;99.90;;;;;;5045029;28;20576;-79
2023/09/05 06:24:38;;;;;;;13.82;5.15;;;15.90;99.90;;;;;;5047047;28;20656;-79
2023/09/05 06:27:06;;;;;;;16.48;6.65;;;16.30;99.90;;;;;;5055335;28;20223;-80
2023/09/05 06:29:32;;;;;;;19.30;6.13;;;16.20;99.90;;;;;;5055090;28;20199;-80
2023/09/05 06:31:59;;;;;;;26.42;6.03;;;16.30;99.90;;;;;;5055362;28;20227;-79
2023/09/05 06:34:27;;;;;;;13.63;5.45;;;16.40;99.90;;;;;;5053499;28;20206;-78
2023/09/05 06:36:54;;;;;;;14.05;4.97;;;16.60;99.90;;;;;;5041630;28;20194;-78
2023/09/05 06:39:21;;;;;;;9.30;5.00;;;16.70;99.90;;;;;;5055148;28;20206;-80
2023/09/05 06:41:48;;;;;;;8.98;5.38;;;16.80;99.90;;;;;;5055964;28;20219;-79
2023/09/05 06:44:15;;;;;;;17.35;5.18;;;16.90;99.90;;;;;;5052593;28;20622;-78
2023/09/05 06:46:42;;;;;;;8.73;4.30;;;17.00;99.90;;;;;;5049986;28;20559;-79
2023/09/05 06:49:09;;;;;;;7.28;4.18;;;17.00;99.90;;;;;;5033340;28;20213;-79
2023/09/05 06:51:37;;;;;;;7.68;4.32;;;17.00;99.90;;;;;;5047097;28;20211;-80
2023/09/05 06:54:04;;;;;;;11.73;4.47;;;17.10;99.90;;;;;;5048924;28;20206;-80
2023/09/05 06:56:30;;;;;;;8.90;4.45;;;17.00;99.90;;;;;;5034955;28;20204;-80
2023/09/05 06:58:57;;;;;;;6.63;4.57;;;17.10;99.90;;;;;;5034111;28;20211;-78
2023/09/05 07:01:24;;;;;;;5.32;4.35;;;17.40;99.90;;;;;;5034613;28;20227;-79
2023/09/05 07:03:51;;;;;;;5.32;2.92;;;17.70;99.90;;;;;;5035409;28;20204;-80
2023/09/05 07:06:19;;;;;;;6.38;3.28;;;17.80;99.90;;;;;;5035211;28;20224;-78
2023/09/05 07:08:47;;;;;;;5.70;3.15;;;18.00;99.90;;;;;;5035263;28;20213;-80
2023/09/05 07:11:14;;;;;;;8.48;3.60;;;18.10;99.90;;;;;;5033812;28;20227;-80
2023/09/05 07:13:41;;;;;;;7.55;4.70;;;18.00;99.90;;;;;;5035079;28;20208;-79
2023/09/05 07:16:08;;;;;;;19.48;13.52;;;17.90;99.90;;;;;;5034777;28;20306;-77
2023/09/05 07:18:35;;;;;;;13.25;7.93;;;18.10;99.90;;;;;;5032960;28;20298;-78
2023/09/05 07:21:02;;;;;;;6.93;5.32;;;18.10;99.90;;;;;;5037220;28;20216;-78
2023/09/05 07:23:29;;;;;;;5.65;3.33;;;18.20;99.90;;;;;;5036346;28;20254;-79
2023/09/05 07:25:58;;;;;;;8.23;3.53;;;18.30;99.90;;;;;;5042609;28;20227;-78
2023/09/05 07:28:24;;;;;;;5.13;3.47;;;18.40;99.90;;;;;;5043755;28;20628;-79
2023/09/05 07:30:51;;;;;;;5.75;3.55;;;18.70;99.90;;;;;;5034433;28;20223;-80
2023/09/05 07:33:18;;;;;;;5.95;3.55;;;18.80;99.90;;;;;;5038494;28;20210;-80
2023/09/05 07:35:45;;;;;;;5.60;3.25;;;19.00;99.90;;;;;;5038503;28;20563;-78
2023/09/05 07:38:14;;;;;;;6.00;3.90;;;19.10;99.90;;;;;;5044339;28;20829;-80
2023/09/05 07:40:42;;;;;;;7.07;3.30;;;19.20;99.90;;;;;;5031055;28;20223;-80
2023/09/05 07:43:11;;;;;;;3.50;2.88;;;19.40;99.90;;;;;;5018136;28;20216;-79
2023/09/05 07:45:38;;;;;;;4.53;3.20;;;19.40;99.90;;;;;;5041614;28;20207;-81
2023/09/05 07:48:08;;;;;;;3.35;2.70;;;19.40;99.90;;;;;;5033606;28;20289;-78
2023/09/05 07:50:36;;;;;;;5.10;2.65;;;19.40;99.90;;;;;;5041047;28;20274;-79
2023/09/05 07:53:03;;;;;;;2.45;2.25;;;19.90;99.90;;;;;;5034619;28;20206;-81
2023/09/05 07:55:30;;;;;;;2.45;2.05;;;19.90;99.90;;;;;;5035488;28;20210;-78
2023/09/05 07:57:56;;;;;;;2.80;2.50;;;19.90;99.90;;;;;;5042022;28;20202;-80
2023/09/05 08:00:27;;;;;;;2.30;2.08;;;20.10;99.90;;;;;;5035148;28;20230;-79
2023/09/05 08:02:54;;;;;;;2.50;2.30;;;20.30;99.90;;;;;;5040521;28;20203;-79
2023/09/05 08:05:21;;;;;;;3.58;2.13;;;20.30;99.90;;;;;;5045052;28;20203;-80
2023/09/05 08:07:48;;;;;;;6.00;2.95;;;20.70;99.90;;;;;;5026465;28;20224;-79
2023/09/05 08:10:15;;;;;;;3.25;2.70;;;20.80;99.90;;;;;;5026153;28;20695;-81
2023/09/05 08:12:42;;;;;;;5.20;2.17;;;20.60;99.90;;;;;;5026996;28;20209;-78
2023/09/05 08:15:10;;;;;;;2.30;1.88;;;20.90;99.90;;;;;;5022884;28;20585;-80
2023/09/05 08:17:39;;;;;;;3.38;2.10;;;21.00;99.90;;;;;;5036009;28;20210;-81
2023/09/05 08:20:08;;;;;;;2.78;2.35;;;21.10;99.90;;;;;;5023411;28;20233;-81
2023/09/05 08:22:35;;;;;;;2.67;2.47;;;21.20;99.90;;;;;;5036847;28;20211;-80
2023/09/05 08:25:01;;;;;;;3.33;2.58;;;21.30;99.90;;;;;;5024719;28;20675;-82
2023/09/05 08:27:29;;;;;;;3.15;2.50;;;21.30;99.90;;;;;;5032490;28;20688;-79
2023/09/05 08:29:58;;;;;;;2.28;2.05;;;21.40;99.90;;;;;;5044922;28;20583;-80
2023/09/05 08:32:25;;;;;;;4.45;2.30;;;21.60;99.90;;;;;;5024500;28;20675;-79
2023/09/05 08:34:53;;;;;;;2.85;2.35;;;21.90;99.90;;;;;;5041203;28;20263;-80
2023/09/05 08:37:20;;;;;;;2.45;2.15;;;22.00;99.90;;;;;;5036048;28;20206;-80
2023/09/05 08:39:47;;;;;;;2.15;2.05;;;21.90;99.90;;;;;;5026842;28;20214;-79
2023/09/05 08:42:14;;;;;;;2.38;2.17;;;21.80;99.90;;;;;;5033537;28;20215;-80
2023/09/05 08:44:42;;;;;;;2.50;2.30;;;21.90;99.90;;;;;;5034109;28;20307;-78
2023/09/05 08:47:09;;;;;;;3.75;2.50;;;21.90;99.90;;;;;;5031146;28;20278;-79
2023/09/05 08:49:37;;;;;;;4.68;2.55;;;22.10;99.90;;;;;;5033261;28;20317;-80
2023/09/05 08:52:07;;;;;;;3.30;2.28;;;22.20;99.90;;;;;;5035742;28;20230;-79
2023/09/05 08:54:33;;;;;;;3.22;2.05;;;22.20;99.90;;;;;;5028477;28;20226;-78
2023/09/05 08:57:02;;;;;;;3.75;2.20;;;22.30;99.90;;;;;;5031323;28;20291;-80
2023/09/05 08:59:31;;;;;;;2.42;2.25;;;22.30;99.90;;;;;;5039800;28;20200;-80
2023/09/05 09:02:00;;;;;;;3.47;2.33;;;22.60;99.90;;;;;;5037088;28;20722;-78
2023/09/05 09:04:27;;;;;;;2.13;1.90;;;22.50;99.90;;;;;;5045603;28;20215;-80
2023/09/05 09:06:57;;;;;;;2.72;2.28;;;22.60;99.90;;;;;;5038931;28;20227;-81
2023/09/05 09:09:35;;;;;;;1.75;1.65;;;22.70;99.90;;;;;;5037078;28;20207;-80
2023/09/05 09:12:02;;;;;;;2.33;2.10;;;23.10;99.90;;;;;;5044669;28;20223;-80
2023/09/05 09:14:29;;;;;;;2.88;2.30;;;23.50;99.90;;;;;;5033668;28;20227;-82
2023/09/05 09:16:59;;;;;;;2.58;2.00;;;23.80;99.90;;;;;;5038294;28;20286;-79
2023/09/05 09:19:29;;;;;;;2.53;2.00;;;24.20;99.90;;;;;;5040867;28;20576;-82
2023/09/05 09:21:59;;;;;;;2.00;1.80;;;24.70;99.90;;;;;;5025160;28;20219;-83
2023/09/05 09:24:32;;;;;;;2.28;1.92;;;25.10;99.90;;;;;;5039403;28;20652;-80
2023/09/05 09:27:01;;;;;;;2.42;1.60;;;25.40;99.90;;;;;;5043652;28;20877;-80
2023/09/05 09:29:30;;;;;;;2.08;1.88;;;25.70;99.90;;;;;;5046092;28;20728;-81
2023/09/05 09:32:02;;;;;;;1.60;1.50;;;25.70;99.90;;;;;;5040118;28;20219;-81
2023/09/05 09:34:30;;;;;;;2.10;1.60;;;26.00;99.90;;;;;;5039003;28;20208;-79
2023/09/05 09:36:58;;;;;;;2.00;1.80;;;26.00;99.90;;;;;;5040986;28;20192;-81
2023/09/05 09:39:27;;;;;;;1.90;1.80;;;26.40;99.90;;;;;;5041264;28;20203;-81
2023/09/05 09:41:55;;;;;;;2.65;1.80;;;26.60;99.90;;;;;;5039616;28;20317;-81
2023/09/05 09:44:28;;;;;;;1.70;1.60;;;26.80;99.90;;;;;;5046309;28;20203;-80
2023/09/05 09:46:56;;;;;;;3.28;1.83;;;26.70;99.90;;;;;;5035959;28;20231;-80
2023/09/05 09:49:26;;;;;;;2.50;1.40;;;26.90;99.90;;;;;;5036199;28;20203;-80
2023/09/05 09:51:57;;;;;;;1.65;1.55;;;27.10;99.90;;;;;;5037376;28;20226;-81
2023/09/05 09:54:31;;;;;;;1.92;1.65;;;27.40;99.90;;;;;;5040671;28;20223;-80
2023/09/05 09:57:00;;;;;;;3.50;1.90;;;27.40;99.90;;;;;;5032395;28;20191;-81
2023/09/05 09:59:35;;;;;;;2.17;1.70;;;27.50;99.90;;;;;;5036458;28;20231;-79
2023/09/05 10:02:07;;;;;;;4.15;1.65;;;27.90;99.90;;;;;;5036184;28;20226;-80
2023/09/05 10:04:35;;;;;;;4.50;1.80;;;28.00;99.90;;;;;;5029984;28;20266;-80
2023/09/05 10:07:05;;;;;;;3.10;1.85;;;28.20;99.90;;;;;;5034992;28;20851;-80
2023/09/05 10:09:32;;;;;;;4.70;1.95;;;28.00;99.90;;;;;;5036405;28;20261;-81
2023/09/05 10:12:01;;;;;;;4.47;2.80;;;28.20;99.90;;;;;;5048079;28;20219;-80
2023/09/05 10:14:31;;;;;;;5.03;1.90;;;28.30;99.90;;;;;;5035093;28;20290;-81
2023/09/05 10:16:59;;;;;;;1.67;1.38;;;28.30;99.90;;;;;;5044110;28;20206;-82
2023/09/05 10:19:26;;;;;;;3.05;1.58;;;28.30;99.90;;;;;;5023808;28;20214;-80
2023/09/05 10:21:55;;;;;;;2.35;1.60;;;28.60;99.90;;;;;;5036763;28;20706;-81
2023/09/05 10:24:23;;;;;;;2.67;1.60;;;28.60;99.90;;;;;;5035807;28;20200;-78
2023/09/05 10:26:50;;;;;;;2.72;1.50;;;28.50;99.90;;;;;;5043357;28;20663;-81
2023/09/05 10:29:41;;;;;;;2.22;1.20;;;28.50;99.90;;;;;;5042726;28;20203;-79
2023/09/05 10:32:09;;;;;;;1.90;1.25;;;28.70;99.90;;;;;;5035615;28;20211;-80
2023/09/05 10:34:58;;;;;;;1.73;1.50;;;28.60;98.20;;;;;;5044068;28;20210;-79
2023/09/05 10:37:28;;;;;;;1.85;1.30;;;28.80;71.10;;;;;;5032217;28;20204;-80
2023/09/05 10:39:57;;;;;;;1.40;1.30;;;29.10;99.90;;;;;;5039223;28;20821;-78
2023/09/05 10:42:29;;;;;;;2.65;1.77;;;28.70;48.80;;;;;;5048364;28;20207;-79
2023/09/05 10:44:59;;;;;;;2.00;1.90;;;28.90;93.90;;;;;;5048457;28;20203;-79
2023/09/05 10:47:33;;;;;;;2.40;1.60;;;29.30;99.90;;;;;;5016485;28;20230;-79
2023/09/05 10:50:00;;;;;;;1.63;1.52;;;29.60;55.50;;;;;;5015672;28;20204;-80
2023/09/05 10:52:29;;;;;;;1.88;1.50;;;29.50;42.00;;;;;;5016156;28;20571;-79
2023/09/05 10:54:56;;;;;;;1.40;1.30;;;29.70;9.30;;;;;;5031418;28;20200;-77
2023/09/05 10:57:37;;;;;;;2.50;1.63;;;29.80;62.70;;;;;;5036595;28;20195;-78
2023/09/05 11:00:38;;;;;;;1.58;1.48;;;29.90;79.90;;;;;;5036793;28;20229;-78
2023/09/05 11:03:13;;;;;;;1.80;1.70;;;29.60;37.50;;;;;;5037300;28;20207;-78
2023/09/05 11:05:41;;;;;;;1.50;1.40;;;29.50;21.80;;;;;;5036497;28;20234;-80
2023/09/05 11:08:20;;;;;;;2.20;2.00;;;29.80;46.20;;;;;;5036253;28;20265;-77
2023/09/05 11:10:47;;;;;;;1.38;1.25;;;30.00;45.80;;;;;;5036455;28;20281;-79
2023/09/05 11:13:14;;;;;;;1.70;1.60;;;29.60;45.80;;;;;;5035942;28;20214;-79
2023/09/05 11:15:44;;;;;;;3.38;1.63;;;29.50;32.90;;;;;;5035964;28;20207;-82
2023/09/05 11:18:12;;;;;;;4.93;1.70;;;29.70;48.20;;;;;;5035816;28;20732;-79
2023/09/05 11:20:40;;;;;;;2.22;1.55;;;29.10;24.80;;;;;;5036928;28;20720;-78
2023/09/05 11:23:17;;;;;;;1.75;1.65;;;29.20;36.90;;;;;;5036393;28;20204;-79
2023/09/05 11:25:46;;;;;;;1.80;1.70;;;29.50;19.10;;;;;;5036541;28;20207;-79
2023/09/05 11:28:14;;;;;;;1.67;1.58;;;30.00;26.50;;;;;;5036737;28;20227;-79
2023/09/05 11:30:45;;;;;;;1.80;1.70;;;29.80;1.00;;;;;;5035029;28;20669;-79
2023/09/05 11:33:14;;;;;;;3.88;1.63;;;29.90;48.30;;;;;;5035649;28;20211;-78
2023/09/05 11:35:41;;;;;;;1.77;1.67;;;30.60;1.00;;;;;;5036358;28;20615;-80
2023/09/05 11:38:08;;;;;;;2.00;1.50;;;30.40;1.00;;;;;;5035878;28;20214;-78
2023/09/05 11:40:35;;;;;;;1.70;1.60;;;30.40;1.00;;;;;;5033608;28;20231;-80
2023/09/05 11:43:04;;;;;;;1.60;1.50;;;30.50;1.00;;;;;;5035441;28;20620;-79
2023/09/05 11:45:30;;;;;;;1.63;1.52;;;30.20;1.00;;;;;;5021114;28;20203;-80
2023/09/05 11:47:59;;;;;;;1.55;1.38;;;30.80;1.00;;;;;;5038230;28;20223;-80
2023/09/05 11:50:27;;;;;;;2.67;1.50;;;30.90;1.00;;;;;;5034414;28;20228;-78
2023/09/05 11:52:55;;;;;;;3.88;1.90;;;30.70;1.00;;;;;;5035590;28;20290;-79
2023/09/05 11:55:23;;;;;;;3.05;2.08;;;31.10;1.00;;;;;;5035366;28;20213;-79
2023/09/05 11:57:52;;;;;;;2.20;1.30;;;30.90;1.00;;;;;;5035990;28;20234;-77
2023/09/05 12:00:20;;;;;;;1.85;1.75;;;30.10;1.00;;;;;;5034173;28;20223;-79
2023/09/05 12:02:47;;;;;;;2.25;1.35;;;30.80;1.00;;;;;;5035057;28;20207;-78
2023/09/05 12:05:16;;;;;;;3.83;1.20;;;31.20;1.00;;;;;;5035826;28;20239;-80
2023/09/05 12:07:42;;;;;;;2.00;1.63;;;31.10;1.00;;;;;;5035611;28;20687;-77
2023/09/05 12:10:10;;;;;;;2.17;1.42;;;30.70;1.00;;;;;;5035003;28;20699;-79
2023/09/05 12:12:37;;;;;;;1.85;1.50;;;30.80;1.00;;;;;;5033157;28;20215;-78
2023/09/05 12:15:05;;;;;;;1.63;1.52;;;30.80;1.00;;;;;;5034624;28;20218;-80
2023/09/05 12:17:32;;;;;;;1.48;1.38;;;30.60;1.00;;;;;;5034832;28;20199;-79
2023/09/05 12:19:59;;;;;;;1.55;1.40;;;31.30;1.00;;;;;;5034947;28;20664;-77
2023/09/05 12:22:29;;;;;;;1.85;1.70;;;31.60;1.00;;;;;;5035211;28;20207;-79
2023/09/05 12:25:10;;;;;;;2.88;1.40;;;31.60;1.00;;;;;;5034896;28;20199;-80
2023/09/05 12:27:38;;;;;;;2.28;1.67;;;31.10;1.00;;;;;;5036671;28;20227;-80
2023/09/05 12:30:07;;;;;;;3.40;1.63;;;31.00;1.00;;;;;;5036734;28;20314;-80
2023/09/05 12:32:34;;;;;;;1.38;1.27;;;30.90;1.00;;;;;;5026684;28;20196;-80
2023/09/05 12:35:01;;;;;;;1.42;1.33;;;31.30;1.00;;;;;;5038048;28;20202;-80
2023/09/05 12:37:29;;;;;;;2.05;1.40;;;31.30;1.00;;;;;;5044401;28;20217;-79
2023/09/05 12:39:56;;;;;;;4.68;2.20;;;31.30;1.00;;;;;;5040242;28;20208;-80
2023/09/05 12:42:24;;;;;;;2.83;1.33;;;30.90;1.00;;;;;;5039099;28;20187;-80
2023/09/05 12:44:52;;;;;;;1.38;1.20;;;31.40;1.00;;;;;;5044423;28;20207;-79
2023/09/05 12:47:19;;;;;;;2.45;1.17;;;31.10;1.00;;;;;;5045721;28;20294;-80
2023/09/05 12:49:47;;;;;;;2.03;1.08;;;31.10;1.00;;;;;;5026115;28;20206;-80
2023/09/05 12:52:13;;;;;;;1.90;1.13;;;30.80;1.00;;;;;;5050551;28;20696;-78